createdAt,value
2024-04-30T00:01:06.532Z,16.33
2024-04-30T00:11:11.278Z,16.31
2024-04-30T00:21:18.564Z,16.21
2024-04-30T00:31:23.096Z,16.17
2024-04-30T00:41:30.542Z,16.17
2024-04-30T00:51:35.832Z,16.11
2024-04-30T01:01:43.093Z,16.05
2024-04-30T01:11:48.743Z,16.10
2024-04-30T01:21:56.413Z,16.10
2024-04-30T01:32:04.007Z,16.15
2024-04-30T01:42:09.040Z,16.16
2024-04-30T01:52:16.380Z,16.12
2024-04-30T02:02:21.035Z,16.04
2024-04-30T02:12:28.244Z,15.99
2024-04-30T02:22:32.882Z,15.95
2024-04-30T02:32:56.039Z,15.91
2024-04-30T02:43:00.708Z,15.91
2024-04-30T02:53:08.023Z,15.83
2024-04-30T03:03:12.579Z,15.82
2024-04-30T03:13:20.525Z,15.85
2024-04-30T03:23:25.120Z,15.91
2024-04-30T03:33:32.512Z,15.92
2024-04-30T03:43:41.051Z,15.85
2024-04-30T03:53:48.804Z,15.67
2024-04-30T04:03:53.362Z,15.51
2024-04-30T04:14:16.197Z,15.49
2024-04-30T04:24:20.728Z,15.57
2024-04-30T04:34:28.043Z,15.57
2024-04-30T04:44:32.686Z,15.46
2024-04-30T04:54:40.064Z,15.43
2024-04-30T05:04:44.697Z,15.46
2024-04-30T05:14:55.635Z,15.60
2024-04-30T05:25:00.515Z,15.83
2024-04-30T05:35:10.182Z,16.20
2024-04-30T05:45:14.537Z,16.35
2024-04-30T05:55:21.806Z,16.40
2024-04-30T06:05:26.410Z,16.29
2024-04-30T06:15:33.887Z,16.48
2024-04-30T06:25:38.602Z,16.70
2024-04-30T06:35:45.959Z,17.08
2024-04-30T06:45:51.188Z,17.17
2024-04-30T06:55:58.469Z,17.61
2024-04-30T07:06:03.131Z,18.25
2024-04-30T07:16:10.779Z,19.20
2024-04-30T07:26:18.373Z,19.60
2024-04-30T07:36:26.389Z,20.00
2024-04-30T07:46:30.968Z,20.34
2024-04-30T07:56:38.163Z,20.44
2024-04-30T08:06:42.789Z,20.89
2024-04-30T08:16:50.341Z,20.91
2024-04-30T08:26:54.984Z,21.06
2024-04-30T08:37:02.153Z,21.20
2024-04-30T08:47:07.989Z,21.53
2024-04-30T08:57:15.333Z,21.89
2024-04-30T09:07:19.992Z,21.88
2024-04-30T09:17:28.337Z,21.93
2024-04-30T09:27:33.564Z,22.38
2024-04-30T09:37:40.959Z,23.41
2024-04-30T09:47:46.044Z,23.54
2024-04-30T09:57:53.254Z,24.06
2024-04-30T10:07:58.909Z,24.97
2024-04-30T10:18:07.142Z,25.01
2024-04-30T10:28:16.405Z,25.08
2024-04-30T10:38:24.256Z,25.32
2024-04-30T10:48:29.936Z,25.25
2024-04-30T10:58:37.316Z,25.05
2024-04-30T11:08:41.998Z,25.51
2024-04-30T11:18:49.268Z,26.38
2024-04-30T11:29:08.843Z,31.24
2024-04-30T11:39:21.129Z,37.38
2024-04-30T11:49:25.749Z,38.49
2024-04-30T11:59:33.062Z,39.81
2024-04-30T12:09:37.630Z,41.17
2024-04-30T12:19:45.131Z,41.03
2024-04-30T12:29:50.192Z,41.20
2024-04-30T12:39:57.859Z,40.82
2024-04-30T12:50:02.422Z,41.39
2024-04-30T13:00:11.769Z,41.09
2024-04-30T13:10:17.306Z,40.27
2024-04-30T13:20:24.513Z,40.22
2024-04-30T13:30:29.173Z,40.55
2024-04-30T13:40:37.421Z,39.78
2024-04-30T13:50:41.994Z,38.66
2024-04-30T14:00:49.331Z,37.16
2024-04-30T14:10:54.069Z,37.31
2024-04-30T14:21:01.385Z,37.43
2024-04-30T14:31:06.040Z,37.00
2024-04-30T14:41:14.675Z,35.58
2024-04-30T14:51:19.235Z,37.33
2024-04-30T15:01:26.383Z,34.67
2024-04-30T15:11:31.018Z,34.88
2024-04-30T15:21:38.729Z,33.40
2024-04-30T15:31:43.544Z,33.05
2024-04-30T15:41:50.935Z,33.20
2024-04-30T15:51:55.502Z,31.75
2024-04-30T16:02:02.768Z,32.31
2024-04-30T16:12:07.900Z,32.24
2024-04-30T16:22:15.200Z,30.97
2024-04-30T16:32:19.984Z,30.51
2024-04-30T16:42:27.251Z,31.02
2024-04-30T16:52:31.791Z,30.98
2024-04-30T17:02:40.110Z,30.47
2024-04-30T17:12:44.730Z,29.68
2024-04-30T17:22:51.952Z,29.18
2024-04-30T17:32:56.580Z,28.39
2024-04-30T17:43:03.829Z,27.91
2024-04-30T17:53:08.500Z,27.45
2024-04-30T18:03:15.919Z,27.12
2024-04-30T18:13:20.493Z,26.61
2024-04-30T18:23:27.706Z,26.06
2024-04-30T18:33:32.365Z,25.51
2024-04-30T18:43:41.843Z,25.13
2024-04-30T18:53:46.515Z,24.76
2024-04-30T19:03:53.921Z,24.40
2024-04-30T19:13:58.595Z,23.84
2024-04-30T19:24:05.958Z,23.30
2024-04-30T19:34:11.694Z,23.18
2024-04-30T19:44:19.094Z,23.03
2024-04-30T19:54:23.633Z,22.64
2024-04-30T20:04:31.010Z,21.85
2024-04-30T20:14:35.966Z,21.44
2024-04-30T20:24:43.415Z,21.33
2024-04-30T20:34:48.311Z,21.05
2024-04-30T20:44:56.059Z,20.71
2024-04-30T20:55:00.959Z,20.56
2024-04-30T21:05:09.158Z,20.48
2024-04-30T21:15:14.093Z,20.56
2024-04-30T21:25:23.221Z,20.40
2024-04-30T21:35:28.156Z,20.05
2024-04-30T21:56:03.601Z,19.31
2024-04-30T22:16:51.340Z,18.87
2024-04-30T22:26:58.704Z,18.85
2024-04-30T22:37:04.163Z,18.74
2024-04-30T22:47:14.059Z,18.69
2024-04-30T22:57:18.895Z,18.67
2024-04-30T23:07:26.427Z,18.61
2024-04-30T23:17:31.111Z,18.36
2024-04-30T23:27:38.435Z,18.18
2024-04-30T23:37:43.004Z,17.89
2024-04-30T23:47:51.593Z,17.72
2024-04-30T23:57:56.425Z,17.68
